Terminal Aerodrome Forecast
Issued by NWS

Home | Current Version | Previous Version | Graphics & Text | Print | Product List | Glossary On
Versions: 1 2 3 4 5 6 7 8 9 10 11 12 13 14 15 16 17 18 19 20 21 22 23 24 25 26 27 28 29 30 31 32
000
FTUS45 KGGW 051913 AAB
TAFOLF
TAF AMD
KOLF 051913Z 0519/0618 31020G30KT 1SM -SN BLSN VCSH SCT015 OVC035
      TEMPO 0519/0521 1/2SM SN BLSN SCT015 OVC025
     FM052130 31018G30KT 5SM BLSN VCSH SCT015 OVC035
     FM060000 30014KT P6SM BKN020
     FM060700 29011KT P6SM BKN035
     FM061500 29010KT P6SM BKN025=

USA.gov is the U.S. government's official web portal to all federal, state and local government web resources and services.